createdAt,value
2022-10-09T00:02:18.920Z,30.10
2022-10-09T00:07:11.920Z,33.97
2022-10-09T00:12:05.600Z,34.72
2022-10-09T00:16:59.805Z,32.90
2022-10-09T00:21:53.325Z,34.75
2022-10-09T00:26:48.510Z,39.75
2022-10-09T00:31:42.729Z,41.08
2022-10-09T00:36:36.240Z,33.92
2022-10-09T00:46:29.077Z,28.75
2022-10-09T00:51:23.534Z,31.35
2022-10-09T00:56:17.878Z,27.55
2022-10-09T01:01:13.150Z,31.88
2022-10-09T01:06:44.729Z,33.45
2022-10-09T01:12:00.070Z,41.28
2022-10-09T01:17:35.900Z,38.55
2022-10-09T01:23:13.641Z,37.50
2022-10-09T01:28:07.669Z,43.33
2022-10-09T01:33:02.105Z,41.13
2022-10-09T01:37:57.108Z,45.67
2022-10-09T01:42:51.699Z,46.65
2022-10-09T01:47:45.797Z,50.88
2022-10-09T01:52:56.424Z,43.42
2022-10-09T01:58:01.391Z,50.58
2022-10-09T02:02:55.868Z,40.78
2022-10-09T02:07:50.421Z,49.42
2022-10-09T02:12:48.736Z,50.13
2022-10-09T02:17:46.077Z,46.78
2022-10-09T02:22:40.164Z,46.08
2022-10-09T02:27:34.164Z,47.78
2022-10-09T02:32:27.216Z,50.05
2022-10-09T02:37:21.308Z,56.13
2022-10-09T02:42:15.440Z,55.65
2022-10-09T02:47:09.945Z,55.95
2022-10-09T02:52:04.474Z,54.88
2022-10-09T02:56:58.082Z,56.70
2022-10-09T03:01:51.702Z,58.10
2022-10-09T03:06:44.767Z,55.70
2022-10-09T03:11:38.779Z,56.78
2022-10-09T03:16:33.459Z,59.78
2022-10-09T03:21:29.076Z,62.53
2022-10-09T03:26:27.805Z,56.97
2022-10-09T03:31:47.056Z,58.55
2022-10-09T03:36:37.242Z,46.72
2022-10-09T03:41:31.228Z,49.60
2022-10-09T03:46:25.561Z,52.83
2022-10-09T03:51:19.741Z,52.83
2022-10-09T03:56:13.756Z,53.13
2022-10-09T04:01:08.193Z,49.85
2022-10-09T04:06:01.922Z,51.67
2022-10-09T04:10:59.288Z,55.60
2022-10-09T04:15:54.586Z,56.78
2022-10-09T04:20:55.594Z,54.58
2022-10-09T04:25:48.633Z,59.42
2022-10-09T04:40:30.424Z,62.28
2022-10-09T04:45:24.310Z,64.30
2022-10-09T04:50:18.388Z,65.45
2022-10-09T04:55:24.059Z,64.85
2022-10-09T05:00:18.517Z,61.45
2022-10-09T05:05:11.778Z,66.18
2022-10-09T05:10:08.801Z,66.80
2022-10-09T05:15:02.748Z,68.00
2022-10-09T05:19:57.145Z,63.22
2022-10-09T05:24:50.964Z,61.65
2022-10-09T05:29:45.338Z,60.97
2022-10-09T05:34:38.051Z,62.25
2022-10-09T05:39:33.271Z,67.53
2022-10-09T05:44:28.477Z,61.78
2022-10-09T05:49:23.639Z,60.67
2022-10-09T05:54:18.817Z,60.47
2022-10-09T05:59:20.253Z,61.05
2022-10-09T06:04:16.377Z,61.50
2022-10-09T06:09:11.926Z,58.95
2022-10-09T06:14:07.060Z,54.85
2022-10-09T06:19:01.645Z,62.35
2022-10-09T06:23:58.172Z,61.08
2022-10-09T06:28:52.247Z,58.15
2022-10-09T06:33:51.205Z,59.80
2022-10-09T06:38:44.764Z,61.42
2022-10-09T06:43:38.880Z,62.10
2022-10-09T06:48:32.591Z,68.82
2022-10-09T06:53:26.174Z,64.72
2022-10-09T06:58:20.308Z,70.43
2022-10-09T07:03:14.113Z,62.75
2022-10-09T07:08:07.710Z,68.13
2022-10-09T07:13:02.008Z,69.13
2022-10-09T07:17:55.880Z,69.07
2022-10-09T07:22:49.559Z,71.22
2022-10-09T07:27:43.636Z,71.47
2022-10-09T07:32:37.786Z,80.07
2022-10-09T07:37:32.247Z,86.32
2022-10-09T07:42:26.103Z,80.88
2022-10-09T07:47:21.122Z,86.68
2022-10-09T07:52:14.523Z,81.30
2022-10-09T07:57:08.921Z,79.50
2022-10-09T08:02:02.797Z,69.90
2022-10-09T08:06:58.864Z,66.85
2022-10-09T08:11:53.478Z,53.65
2022-10-09T08:16:48.084Z,49.25
2022-10-09T08:21:42.579Z,44.45
2022-10-09T08:26:36.670Z,44.10
2022-10-09T08:31:30.934Z,40.72
2022-10-09T08:36:25.465Z,40.72
2022-10-09T08:41:33.657Z,42.38
2022-10-09T08:46:33.457Z,45.95
2022-10-09T08:51:29.815Z,46.00
2022-10-09T08:56:27.804Z,47.80
2022-10-09T09:01:32.276Z,43.55
2022-10-09T09:06:44.877Z,40.83
2022-10-09T09:11:48.407Z,41.67
2022-10-09T09:16:57.991Z,43.33
2022-10-09T09:21:53.303Z,46.00
2022-10-09T09:26:51.166Z,45.40
2022-10-09T09:31:47.644Z,45.03
2022-10-09T09:36:53.196Z,44.25
2022-10-09T09:41:46.956Z,45.50
2022-10-09T09:46:41.568Z,51.22
2022-10-09T09:51:37.267Z,53.42
2022-10-09T10:02:18.816Z,51.00
2022-10-09T10:07:37.308Z,43.83
2022-10-09T10:12:30.608Z,42.95
2022-10-09T10:17:29.941Z,49.33
2022-10-09T10:22:28.920Z,43.35
2022-10-09T10:27:32.638Z,43.13
2022-10-09T10:32:37.322Z,44.90
2022-10-09T10:38:13.629Z,39.08
2022-10-09T10:43:10.266Z,39.38
2022-10-09T10:48:04.597Z,36.45
2022-10-09T10:53:25.684Z,26.50
2022-10-09T10:58:32.324Z,32.67
2022-10-09T11:03:25.573Z,25.27
2022-10-09T11:09:13.338Z,28.48
2022-10-09T11:14:20.012Z,22.83
2022-10-09T11:19:52.331Z,22.33
2022-10-09T11:24:48.473Z,19.02
2022-10-09T11:29:48.572Z,21.58
2022-10-09T11:35:03.063Z,21.15
2022-10-09T11:39:57.635Z,17.05
2022-10-09T11:44:51.127Z,19.02
2022-10-09T11:50:12.343Z,19.02
2022-10-09T11:55:24.692Z,18.13
2022-10-09T12:00:31.561Z,26.45
2022-10-09T12:05:30.261Z,20.38
2022-10-09T12:10:34.640Z,17.75
2022-10-09T12:15:41.195Z,20.88
2022-10-09T12:20:42.664Z,22.20
2022-10-09T12:25:45.471Z,23.25
2022-10-09T12:30:46.593Z,19.70
2022-10-09T12:35:47.316Z,18.20
2022-10-09T12:40:46.507Z,18.08
2022-10-09T12:45:45.950Z,18.42
2022-10-09T12:50:40.887Z,19.05
2022-10-09T12:56:06.525Z,15.77
2022-10-09T13:01:02.355Z,13.55
2022-10-09T13:05:57.788Z,15.73
2022-10-09T13:10:51.428Z,15.02
2022-10-09T13:15:44.916Z,13.98
2022-10-09T13:20:38.297Z,12.63
2022-10-09T13:25:39.449Z,11.82
2022-10-09T13:30:33.546Z,10.00
2022-10-09T13:35:31.451Z,10.68
2022-10-09T13:40:26.104Z,10.95
2022-10-09T13:45:26.453Z,8.85
2022-10-09T13:50:23.821Z,10.55
2022-10-09T13:55:21.538Z,10.77
2022-10-09T14:00:16.504Z,9.20
2022-10-09T14:05:11.775Z,9.65
2022-10-09T14:10:08.921Z,9.15
2022-10-09T14:15:06.454Z,7.72
2022-10-09T14:20:02.116Z,10.23
2022-10-09T14:24:57.276Z,6.63
2022-10-09T14:29:56.613Z,7.35
2022-10-09T14:34:51.324Z,9.57
2022-10-09T14:39:47.732Z,7.25
2022-10-09T14:44:42.741Z,5.88
2022-10-09T14:49:38.419Z,7.60
2022-10-09T14:54:32.802Z,8.27
2022-10-09T14:59:26.724Z,7.15
2022-10-09T15:04:20.849Z,5.90
2022-10-09T15:09:14.819Z,6.80
2022-10-09T15:14:11.297Z,6.40
2022-10-09T15:19:08.094Z,6.78
2022-10-09T15:24:04.950Z,6.10
2022-10-09T15:29:01.268Z,5.38
2022-10-09T15:33:58.609Z,15.05
2022-10-09T15:38:59.368Z,6.78
2022-10-09T15:43:56.377Z,11.73
2022-10-09T15:48:56.918Z,12.32
2022-10-09T15:54:00.876Z,9.05
2022-10-09T15:59:04.223Z,13.60
2022-10-09T16:09:04.464Z,16.05
2022-10-09T16:13:59.567Z,12.23
2022-10-09T16:18:53.828Z,16.92
2022-10-09T16:23:58.883Z,14.65
2022-10-09T16:29:04.755Z,14.18
2022-10-09T16:34:03.842Z,15.15
2022-10-09T16:39:00.626Z,21.02
2022-10-09T16:44:02.159Z,13.63
2022-10-09T16:48:59.670Z,10.02
2022-10-09T16:53:55.150Z,12.65
2022-10-09T16:58:50.967Z,15.50
2022-10-09T17:03:46.145Z,14.20
2022-10-09T17:08:45.948Z,15.27
2022-10-09T17:13:40.612Z,12.35
2022-10-09T17:18:34.325Z,13.20
2022-10-09T17:23:28.695Z,13.80
2022-10-09T17:28:22.718Z,15.27
2022-10-09T17:33:19.769Z,12.90
2022-10-09T17:38:13.537Z,13.48
2022-10-09T17:43:08.043Z,12.40
2022-10-09T17:48:02.221Z,14.65
2022-10-09T17:52:56.374Z,14.90
2022-10-09T17:57:49.750Z,15.05
2022-10-09T18:02:44.258Z,15.18
2022-10-09T18:07:38.543Z,14.45
2022-10-09T18:12:32.757Z,17.60
2022-10-09T18:17:30.661Z,17.45
2022-10-09T18:22:24.022Z,13.00
2022-10-09T18:32:10.622Z,13.35
2022-10-09T18:37:04.989Z,17.23
2022-10-09T18:41:59.175Z,19.77
2022-10-09T18:46:57.237Z,16.52
2022-10-09T18:51:51.128Z,13.63
2022-10-09T18:56:45.108Z,15.32
2022-10-09T19:01:39.424Z,13.40
2022-10-09T19:06:33.276Z,23.20
2022-10-09T19:11:27.293Z,21.63
2022-10-09T19:16:25.054Z,18.83
2022-10-09T19:21:19.485Z,17.40
2022-10-09T19:26:14.004Z,19.50
2022-10-09T19:31:10.171Z,20.40
2022-10-09T19:36:04.503Z,22.15
2022-10-09T19:41:04.951Z,21.02
2022-10-09T19:46:18.924Z,22.88
2022-10-09T19:51:14.890Z,20.90
2022-10-09T19:56:21.361Z,24.15
2022-10-09T20:01:16.406Z,29.73
2022-10-09T20:06:11.208Z,31.30
2022-10-09T20:11:05.404Z,27.70
2022-10-09T20:16:02.715Z,26.75
2022-10-09T20:21:00.389Z,26.38
2022-10-09T20:26:03.948Z,24.48
2022-10-09T20:35:51.894Z,28.05
2022-10-09T20:40:51.711Z,29.27
2022-10-09T20:45:50.394Z,26.85
2022-10-09T20:50:56.353Z,31.05
2022-10-09T20:55:50.807Z,31.50
2022-10-09T21:00:59.759Z,31.73
2022-10-09T21:05:56.122Z,30.60
2022-10-09T21:10:55.253Z,30.17
2022-10-09T21:15:53.592Z,29.65
2022-10-09T21:20:49.466Z,30.27
2022-10-09T21:25:53.902Z,32.05
2022-10-09T21:30:47.292Z,30.27
2022-10-09T21:35:45.621Z,35.35
2022-10-09T21:40:39.829Z,28.85
2022-10-09T21:45:34.068Z,31.27
2022-10-09T21:50:27.844Z,31.48
2022-10-09T21:55:23.428Z,29.85
2022-10-09T22:00:17.570Z,30.58
2022-10-09T22:05:11.528Z,27.58
2022-10-09T22:10:06.955Z,32.70
2022-10-09T22:15:00.542Z,30.88
2022-10-09T22:19:54.071Z,29.00
2022-10-09T22:24:47.976Z,29.50
2022-10-09T22:29:42.259Z,36.25
2022-10-09T22:34:39.461Z,30.88
2022-10-09T22:39:33.530Z,32.47
2022-10-09T22:44:28.115Z,31.98
2022-10-09T22:49:22.347Z,34.47
2022-10-09T22:54:16.446Z,36.00
2022-10-09T22:59:12.345Z,39.00
2022-10-09T23:04:08.372Z,40.42
2022-10-09T23:09:04.310Z,40.20
2022-10-09T23:13:59.445Z,38.20
2022-10-09T23:18:53.405Z,38.60
2022-10-09T23:23:47.508Z,42.35
2022-10-09T23:28:41.657Z,41.55
2022-10-09T23:33:36.012Z,40.85
2022-10-09T23:38:29.341Z,35.85
2022-10-09T23:43:24.134Z,31.20
2022-10-09T23:48:17.691Z,28.48
2022-10-09T23:53:11.710Z,30.23
2022-10-09T23:58:05.158Z,26.30
